Time;durP1;ratioP1;P1;durP2;ratioP2;P2;SDS_P1;SDS_P2;PMS_P1;PMS_P2;Temp;Humidity;BMP_temperature;BMP_pressure;BME280_temperature;BME280_humidity;BME280_pressure;Samples;Min_cycle;Max_cycle;Signal;HPM_P1;HPM_P2
2023/11/26 00:02:12;;;;;;;4.45;0.85;;;;;;;;;;5038982;28;20060;-73
2023/11/26 00:04:47;;;;;;;10.90;1.85;;;;;;;;;;5039115;28;20420;-74
2023/11/26 00:07:49;;;;;;;3.63;0.80;;;;;;;;;;5039263;28;20823;-73
2023/11/26 00:10:20;;;;;;;7.00;1.00;;;;;;;;;;5038601;28;20048;-73
2023/11/26 00:12:50;;;;;;;5.95;1.20;;;;;;;;;;5039810;28;20049;-72
2023/11/26 00:15:21;;;;;;;3.67;0.70;;;;;;;;;;5039205;28;20041;-73
2023/11/26 00:17:51;;;;;;;8.32;0.90;;;;;;;;;;5039557;28;20056;-75
2023/11/26 00:20:22;;;;;;;8.13;1.00;;;;;;;;;;5039387;28;20524;-74
2023/11/26 00:22:52;;;;;;;3.55;1.20;;;;;;;;;;5039666;28;20045;-73
2023/11/26 00:25:22;;;;;;;3.70;0.80;;;;;;;;;;5038815;28;20053;-72
2023/11/26 00:28:56;;;;;;;5.03;1.30;;;;;;;;;;5039828;28;20041;-72
2023/11/26 00:31:27;;;;;;;5.95;1.10;;;;;;;;;;5039302;28;20041;-73
2023/11/26 00:33:57;;;;;;;8.02;1.05;;;;;;;;;;5038738;28;20056;-73
2023/11/26 00:36:28;;;;;;;5.35;1.45;;;;;;;;;;5039479;28;20053;-73
2023/11/26 00:38:58;;;;;;;11.95;2.28;;;;;;;;;;5037913;28;20060;-73
2023/11/26 00:41:29;;;;;;;6.57;0.50;;;;;;;;;;5038617;28;20057;-75
2023/11/26 00:44:00;;;;;;;4.22;1.02;;;;;;;;;;5039180;28;20412;-73
2023/11/26 00:46:29;;;;;;;8.75;0.98;;;;;;;;;;5037987;28;20753;-74
2023/11/26 00:49:05;;;;;;;6.47;0.90;;;;;;;;;;5043210;28;20051;-75
2023/11/26 00:51:36;;;;;;;7.13;1.10;;;;;;;;;;5043188;28;20743;-73
2023/11/26 00:54:08;;;;;;;6.70;1.23;;;;;;;;;;5042844;28;20506;-73
2023/11/26 00:56:38;;;;;;;6.78;1.60;;;;;;;;;;5042588;28;20052;-74
2023/11/26 00:59:11;;;;;;;5.93;0.60;;;;;;;;;;5042540;28;20427;-73
2023/11/26 01:01:41;;;;;;;5.68;0.95;;;;;;;;;;5043228;28;20060;-74
2023/11/26 01:04:12;;;;;;;9.55;1.90;;;;;;;;;;5042895;28;20056;-74
2023/11/26 01:06:43;;;;;;;12.07;3.25;;;;;;;;;;5042917;28;20507;-73
2023/11/26 01:09:14;;;;;;;5.55;1.60;;;;;;;;;;5041244;28;20503;-73
2023/11/26 01:11:45;;;;;;;11.15;1.65;;;;;;;;;;5043183;28;20045;-73
2023/11/26 01:14:15;;;;;;;6.30;1.20;;;;;;;;;;5042754;28;20048;-73
2023/11/26 01:16:46;;;;;;;3.85;1.50;;;;;;;;;;5042205;28;21311;-73
2023/11/26 01:19:17;;;;;;;8.10;2.00;;;;;;;;;;5040510;28;20504;-73
2023/11/26 01:21:48;;;;;;;9.82;2.30;;;;;;;;;;5042581;28;20055;-72
2023/11/26 01:24:18;;;;;;;4.13;1.48;;;;;;;;;;5040904;28;20053;-73
2023/11/26 01:26:49;;;;;;;5.47;1.38;;;;;;;;;;5042199;28;20512;-72
2023/11/26 01:29:19;;;;;;;6.05;1.00;;;;;;;;;;5042146;28;20060;-73
2023/11/26 01:31:50;;;;;;;3.92;1.15;;;;;;;;;;5041805;28;20393;-72
2023/11/26 01:34:21;;;;;;;3.38;0.60;;;;;;;;;;5039926;28;20050;-73
2023/11/26 01:36:50;;;;;;;6.78;1.25;;;;;;;;;;5042175;28;20053;-74
2023/11/26 01:39:22;;;;;;;2.80;0.80;;;;;;;;;;5041575;28;20697;-74
2023/11/26 01:41:53;;;;;;;4.25;0.90;;;;;;;;;;5041747;28;20057;-74
2023/11/26 01:44:23;;;;;;;7.15;0.80;;;;;;;;;;5042706;28;20053;-74
2023/11/26 01:46:56;;;;;;;3.83;0.68;;;;;;;;;;5041702;28;20041;-77
2023/11/26 01:49:26;;;;;;;5.63;0.80;;;;;;;;;;5041795;28;20403;-74
2023/11/26 01:51:57;;;;;;;6.05;1.00;;;;;;;;;;5041787;28;20619;-73
2023/11/26 01:54:32;;;;;;;6.22;1.13;;;;;;;;;;5041394;28;20120;-74
2023/11/26 01:57:04;;;;;;;4.43;0.95;;;;;;;;;;5039927;28;20072;-75
2023/11/26 01:59:35;;;;;;;4.65;1.02;;;;;;;;;;5038997;28;20056;-74
2023/11/26 02:02:06;;;;;;;5.32;1.17;;;;;;;;;;5039753;28;20049;-74
2023/11/26 02:04:38;;;;;;;4.80;0.73;;;;;;;;;;5041831;28;20479;-75
2023/11/26 02:07:09;;;;;;;3.55;0.60;;;;;;;;;;5042162;28;20056;-74
2023/11/26 02:09:39;;;;;;;3.08;1.05;;;;;;;;;;5039648;28;20054;-73
2023/11/26 02:12:12;;;;;;;9.60;1.00;;;;;;;;;;5040302;28;20056;-72
2023/11/26 02:14:48;;;;;;;6.60;1.27;;;;;;;;;;5039216;28;20052;-74
2023/11/26 02:17:20;;;;;;;4.30;0.90;;;;;;;;;;5041425;28;20416;-73
2023/11/26 02:19:53;;;;;;;3.42;0.90;;;;;;;;;;5039540;28;20535;-77
2023/11/26 02:22:24;;;;;;;8.88;0.95;;;;;;;;;;5039504;28;20066;-79
2023/11/26 02:24:55;;;;;;;10.10;0.80;;;;;;;;;;5041767;28;20740;-74
2023/11/26 02:27:25;;;;;;;7.13;0.88;;;;;;;;;;5040296;28;20049;-73
2023/11/26 02:29:55;;;;;;;2.40;0.90;;;;;;;;;;5040996;28;20049;-74
2023/11/26 02:32:29;;;;;;;2.05;0.88;;;;;;;;;;5041130;28;20550;-75
2023/11/26 02:35:00;;;;;;;6.63;0.80;;;;;;;;;;5040682;28;20045;-73
2023/11/26 02:37:31;;;;;;;7.07;0.98;;;;;;;;;;5039299;28;20076;-73
2023/11/26 02:40:01;;;;;;;3.83;1.05;;;;;;;;;;5041014;28;20419;-74
2023/11/26 02:42:33;;;;;;;8.07;0.60;;;;;;;;;;5040823;28;20052;-74
2023/11/26 02:45:05;;;;;;;16.08;1.33;;;;;;;;;;5040860;28;20045;-73
2023/11/26 02:47:36;;;;;;;3.13;0.90;;;;;;;;;;5040693;28;20073;-73
2023/11/26 02:50:07;;;;;;;6.30;0.90;;;;;;;;;;5040390;28;20438;-73
2023/11/26 02:52:39;;;;;;;4.88;1.02;;;;;;;;;;5039236;28;20396;-73
2023/11/26 02:55:10;;;;;;;2.13;1.00;;;;;;;;;;5038860;28;20052;-75
2023/11/26 02:57:40;;;;;;;5.70;0.80;;;;;;;;;;5040073;28;20132;-73
2023/11/26 03:00:20;;;;;;;9.48;0.93;;;;;;;;;;5041188;28;20401;-73
2023/11/26 03:02:51;;;;;;;6.05;0.85;;;;;;;;;;5038831;28;20068;-73
2023/11/26 03:05:23;;;;;;;6.63;1.20;;;;;;;;;;5040141;28;20049;-73
2023/11/26 03:07:58;;;;;;;9.18;1.20;;;;;;;;;;5039312;28;20757;-74
2023/11/26 03:13:20;;;;;;;4.07;0.93;;;;;;;;;;5039934;28;21103;-73
2023/11/26 03:15:53;;;;;;;6.13;0.98;;;;;;;;;;5039177;28;20048;-73
2023/11/26 03:18:24;;;;;;;3.45;0.88;;;;;;;;;;5038623;28;20059;-73
2023/11/26 03:20:56;;;;;;;5.57;0.90;;;;;;;;;;5040614;28;20503;-79
2023/11/26 03:23:30;;;;;;;4.70;0.68;;;;;;;;;;5038591;28;20431;-73
2023/11/26 03:26:01;;;;;;;1.67;0.50;;;;;;;;;;5040168;28;20045;-74
2023/11/26 03:28:32;;;;;;;3.13;0.82;;;;;;;;;;5039880;28;20455;-74
2023/11/26 03:31:02;;;;;;;5.97;1.00;;;;;;;;;;5038150;28;20060;-74
2023/11/26 03:33:34;;;;;;;2.00;0.73;;;;;;;;;;5040199;28;20057;-74
2023/11/26 03:36:06;;;;;;;2.03;0.93;;;;;;;;;;5039968;28;20522;-73
2023/11/26 03:38:36;;;;;;;8.05;0.90;;;;;;;;;;5038469;28;20060;-73
2023/11/26 03:41:06;;;;;;;5.95;1.00;;;;;;;;;;5040499;28;20044;-73
2023/11/26 03:43:40;;;;;;;3.50;0.57;;;;;;;;;;5039608;28;20106;-75
2023/11/26 03:46:20;;;;;;;5.30;0.60;;;;;;;;;;5039774;28;20049;-74
2023/11/26 03:48:51;;;;;;;3.20;1.02;;;;;;;;;;5037069;28;20637;-73
2023/11/26 03:51:22;;;;;;;7.40;1.05;;;;;;;;;;5037719;28;20049;-74
2023/11/26 03:53:54;;;;;;;6.82;0.85;;;;;;;;;;5038098;28;20049;-74
2023/11/26 03:56:24;;;;;;;6.03;0.73;;;;;;;;;;5037256;28;20485;-74
2023/11/26 03:58:54;;;;;;;4.10;1.52;;;;;;;;;;5035680;28;20053;-74
2023/11/26 04:01:26;;;;;;;7.32;0.80;;;;;;;;;;5037760;28;20072;-73
2023/11/26 04:04:01;;;;;;;3.55;0.98;;;;;;;;;;5037155;28;20111;-74
2023/11/26 04:06:32;;;;;;;2.88;0.50;;;;;;;;;;5036187;28;20064;-73
2023/11/26 04:09:03;;;;;;;4.65;0.93;;;;;;;;;;5037521;28;20061;-73
2023/11/26 04:11:33;;;;;;;3.40;0.63;;;;;;;;;;5038363;28;20053;-73
2023/11/26 04:14:05;;;;;;;6.82;1.10;;;;;;;;;;5037559;28;20056;-73
2023/11/26 04:16:36;;;;;;;7.03;1.08;;;;;;;;;;5039678;28;20045;-73
2023/11/26 04:19:06;;;;;;;3.92;0.52;;;;;;;;;;5039503;28;20060;-73
2023/11/26 04:21:36;;;;;;;2.90;0.80;;;;;;;;;;5039563;28;20059;-74
2023/11/26 04:24:07;;;;;;;13.80;0.98;;;;;;;;;;5043584;28;20074;-73
2023/11/26 04:26:37;;;;;;;5.07;0.77;;;;;;;;;;5043372;28;20049;-71
2023/11/26 04:29:14;;;;;;;5.97;0.93;;;;;;;;;;5042846;28;20522;-73
2023/11/26 04:31:44;;;;;;;4.10;0.90;;;;;;;;;;5043453;28;20060;-72
2023/11/26 04:34:15;;;;;;;5.22;1.05;;;;;;;;;;5042546;28;20115;-75
2023/11/26 04:36:45;;;;;;;8.07;1.23;;;;;;;;;;5043127;28;20052;-73
2023/11/26 04:39:16;;;;;;;5.40;1.15;;;;;;;;;;5043106;28;20049;-73
2023/11/26 04:41:46;;;;;;;11.45;1.08;;;;;;;;;;5042756;28;20812;-73
2023/11/26 04:44:16;;;;;;;8.90;1.00;;;;;;;;;;5043009;28;20049;-73
2023/11/26 04:46:47;;;;;;;3.45;0.88;;;;;;;;;;5043277;28;20060;-74
2023/11/26 04:52:21;;;;;;;6.60;1.17;;;;;;;;;;5042635;28;20053;-73
2023/11/26 04:54:52;;;;;;;6.63;1.05;;;;;;;;;;5043387;28;20604;-74
2023/11/26 04:57:23;;;;;;;7.72;1.27;;;;;;;;;;5042637;28;20075;-74
2023/11/26 04:59:53;;;;;;;3.08;0.77;;;;;;;;;;5042691;28;20055;-73
2023/11/26 05:02:24;;;;;;;4.38;1.05;;;;;;;;;;5042368;28;20057;-73
2023/11/26 05:04:55;;;;;;;4.57;0.80;;;;;;;;;;5041012;28;20053;-73
2023/11/26 05:07:25;;;;;;;1.98;0.75;;;;;;;;;;5042411;28;20412;-72
2023/11/26 05:09:55;;;;;;;6.80;0.63;;;;;;;;;;5042802;28;20045;-74
2023/11/26 05:12:26;;;;;;;5.63;1.23;;;;;;;;;;5024393;28;20052;-73
2023/11/26 05:17:58;;;;;;;3.08;0.70;;;;;;;;;;5042394;28;20060;-73
2023/11/26 05:20:29;;;;;;;6.53;1.08;;;;;;;;;;5042585;28;20656;-74
2023/11/26 05:22:59;;;;;;;5.97;1.45;;;;;;;;;;5042688;28;20071;-73
2023/11/26 05:26:31;;;;;;;7.47;1.63;;;;;;;;;;5042635;28;20488;-74
2023/11/26 05:29:08;;;;;;;5.80;1.02;;;;;;;;;;5044996;28;20420;-73
2023/11/26 05:31:38;;;;;;;6.18;0.85;;;;;;;;;;5044579;28;20056;-73
2023/11/26 05:34:08;;;;;;;4.93;1.13;;;;;;;;;;5045245;28;21219;-75
2023/11/26 05:36:39;;;;;;;3.22;1.08;;;;;;;;;;5045324;28;20053;-74
2023/11/26 05:39:42;;;;;;;2.35;0.80;;;;;;;;;;5044715;28;20041;-73
2023/11/26 05:42:13;;;;;;;3.10;0.90;;;;;;;;;;5045599;28;20045;-72
2023/11/26 05:44:44;;;;;;;6.18;0.93;;;;;;;;;;5044757;28;20052;-72
2023/11/26 05:47:15;;;;;;;9.63;1.40;;;;;;;;;;5044288;28;20048;-72
2023/11/26 05:49:46;;;;;;;6.13;1.10;;;;;;;;;;5044297;28;20052;-72
2023/11/26 05:52:16;;;;;;;1.55;0.60;;;;;;;;;;5044397;28;20044;-73
2023/11/26 05:54:47;;;;;;;5.43;0.80;;;;;;;;;;5044669;28;21157;-73
2023/11/26 05:57:17;;;;;;;8.70;0.98;;;;;;;;;;5044036;28;20049;-72
2023/11/26 05:59:47;;;;;;;6.38;0.90;;;;;;;;;;5042879;28;20049;-73
2023/11/26 06:02:18;;;;;;;9.48;1.42;;;;;;;;;;5044377;28;20507;-74
2023/11/26 06:04:49;;;;;;;3.92;0.98;;;;;;;;;;5044325;28;20530;-72
2023/11/26 06:07:19;;;;;;;5.90;1.15;;;;;;;;;;5044754;28;20048;-73
2023/11/26 06:09:49;;;;;;;6.82;1.15;;;;;;;;;;5044024;28;20045;-72
2023/11/26 06:12:20;;;;;;;4.82;1.02;;;;;;;;;;5045327;28;20802;-73
2023/11/26 06:14:51;;;;;;;3.45;0.93;;;;;;;;;;5044435;28;20053;-71
2023/11/26 06:17:21;;;;;;;3.72;0.90;;;;;;;;;;5043772;28;20049;-71
2023/11/26 06:19:52;;;;;;;5.97;1.08;;;;;;;;;;5042231;28;20053;-74
2023/11/26 06:22:22;;;;;;;5.95;1.08;;;;;;;;;;5043985;28;20037;-73
2023/11/26 06:24:52;;;;;;;3.08;0.98;;;;;;;;;;5044177;28;20041;-73
2023/11/26 06:27:22;;;;;;;2.42;0.80;;;;;;;;;;5044123;28;20057;-72
2023/11/26 06:29:53;;;;;;;9.82;1.17;;;;;;;;;;5043853;28;20045;-72
2023/11/26 06:32:24;;;;;;;5.45;0.73;;;;;;;;;;5043773;28;20053;-73
2023/11/26 06:34:56;;;;;;;5.35;1.05;;;;;;;;;;5043852;28;20041;-73
2023/11/26 06:37:26;;;;;;;0.93;0.82;;;;;;;;;;5043778;28;20049;-72
2023/11/26 06:39:57;;;;;;;1.48;0.90;;;;;;;;;;5044111;28;20053;-73
2023/11/26 06:42:28;;;;;;;2.92;0.77;;;;;;;;;;5043278;28;20060;-74
2023/11/26 06:44:59;;;;;;;4.18;1.15;;;;;;;;;;5042495;28;20419;-72
2023/11/26 06:47:29;;;;;;;3.20;1.00;;;;;;;;;;5043513;28;20399;-72
2023/11/26 06:49:59;;;;;;;2.58;0.90;;;;;;;;;;5043517;28;20045;-72
2023/11/26 06:52:30;;;;;;;4.60;1.08;;;;;;;;;;5043070;28;20063;-73
2023/11/26 06:55:01;;;;;;;7.07;1.42;;;;;;;;;;5043111;28;20056;-73
2023/11/26 06:57:32;;;;;;;6.03;1.20;;;;;;;;;;5042692;28;20488;-72
2023/11/26 07:00:03;;;;;;;2.40;1.00;;;;;;;;;;5043431;28;20049;-72
2023/11/26 07:02:34;;;;;;;5.50;0.68;;;;;;;;;;5043878;28;20052;-72
2023/11/26 07:05:07;;;;;;;5.72;0.77;;;;;;;;;;5043400;28;20052;-73
2023/11/26 07:07:38;;;;;;;4.43;1.00;;;;;;;;;;5043067;28;20060;-74
2023/11/26 07:10:09;;;;;;;6.00;0.82;;;;;;;;;;5043576;28;20051;-74
2023/11/26 07:12:39;;;;;;;2.53;1.20;;;;;;;;;;5043041;28;20053;-72
2023/11/26 07:15:10;;;;;;;3.45;1.58;;;;;;;;;;5043060;28;20060;-72
2023/11/26 07:17:41;;;;;;;2.13;1.05;;;;;;;;;;5041325;28;20056;-74
2023/11/26 07:20:16;;;;;;;3.20;1.20;;;;;;;;;;5042579;28;20067;-74
2023/11/26 07:22:46;;;;;;;3.65;0.90;;;;;;;;;;5042912;28;20048;-72
2023/11/26 07:28:18;;;;;;;7.32;1.67;;;;;;;;;;5042866;28;20041;-73
2023/11/26 07:30:49;;;;;;;3.63;0.80;;;;;;;;;;5042514;28;20518;-73
2023/11/26 07:33:19;;;;;;;9.20;1.23;;;;;;;;;;5042732;28;20128;-74
2023/11/26 07:35:50;;;;;;;3.95;1.02;;;;;;;;;;5042350;28;20053;-73
2023/11/26 07:38:20;;;;;;;8.82;2.05;;;;;;;;;;5042941;28;20053;-74
2023/11/26 07:40:53;;;;;;;3.90;1.00;;;;;;;;;;5041343;28;20045;-73
2023/11/26 07:43:23;;;;;;;3.63;1.30;;;;;;;;;;5041858;28;20453;-73
2023/11/26 07:45:53;;;;;;;3.30;1.00;;;;;;;;;;5042054;28;20048;-72
2023/11/26 07:48:25;;;;;;;4.57;1.30;;;;;;;;;;5041877;28;20059;-73
2023/11/26 07:50:56;;;;;;;7.63;1.15;;;;;;;;;;5042373;28;20049;-73
2023/11/26 07:53:27;;;;;;;6.22;1.10;;;;;;;;;;5042292;28;20049;-73
2023/11/26 07:55:57;;;;;;;3.17;0.90;;;;;;;;;;5041953;28;20041;-74
2023/11/26 07:58:28;;;;;;;5.65;1.23;;;;;;;;;;5042170;28;20056;-73
2023/11/26 08:01:07;;;;;;;4.65;1.33;;;;;;;;;;5041744;28;20055;-74
2023/11/26 08:03:38;;;;;;;2.28;0.98;;;;;;;;;;5042441;28;20040;-73
2023/11/26 08:06:15;;;;;;;2.90;1.02;;;;;;;;;;5042325;28;20044;-73
2023/11/26 08:08:45;;;;;;;3.80;1.40;;;;;;;;;;5042238;28;20056;-73
2023/11/26 08:11:17;;;;;;;4.15;1.40;;;;;;;;;;5040678;28;20044;-73
2023/11/26 08:13:48;;;;;;;6.07;1.60;;;;;;;;;;5041930;28;20048;-72
2023/11/26 08:16:19;;;;;;;5.15;1.13;;;;;;;;;;5041856;28;20056;-74
2023/11/26 08:18:51;;;;;;;3.30;1.83;;;;;;;;;;5042088;28;20680;-73
2023/11/26 08:21:23;;;;;;;5.50;1.38;;;;;;;;;;5040724;28;20049;-73
2023/11/26 08:25:00;;;;;;;2.97;1.17;;;;;;;;;;5041809;28;20049;-73
2023/11/26 08:27:33;;;;;;;6.43;1.23;;;;;;;;;;5040412;28;20511;-73
2023/11/26 08:30:12;;;;;;;6.18;1.42;;;;;;;;;;5041592;28;20060;-74
2023/11/26 08:32:46;;;;;;;5.13;1.40;;;;;;;;;;5041619;28;20048;-72
2023/11/26 08:35:17;;;;;;;7.03;1.92;;;;;;;;;;5041708;28;20108;-72
2023/11/26 08:37:47;;;;;;;2.22;1.38;;;;;;;;;;5041659;28;20060;-74
2023/11/26 08:40:18;;;;;;;2.58;1.30;;;;;;;;;;5041803;28;20056;-72
2023/11/26 08:42:49;;;;;;;3.50;1.20;;;;;;;;;;5042013;28;20076;-74
2023/11/26 08:45:19;;;;;;;6.03;1.40;;;;;;;;;;5041904;28;20504;-74
2023/11/26 08:47:51;;;;;;;7.18;1.50;;;;;;;;;;5041662;28;20045;-73
2023/11/26 08:50:22;;;;;;;4.00;1.10;;;;;;;;;;5041725;28;20049;-73
2023/11/26 08:55:56;;;;;;;4.82;1.30;;;;;;;;;;5041996;28;20048;-73
2023/11/26 08:58:27;;;;;;;4.28;0.95;;;;;;;;;;5040539;28;20053;-73
2023/11/26 09:00:57;;;;;;;5.25;1.17;;;;;;;;;;5041703;28;20826;-74
2023/11/26 09:03:28;;;;;;;4.60;1.05;;;;;;;;;;5041731;28;20049;-73
2023/11/26 09:05:58;;;;;;;6.15;1.00;;;;;;;;;;5041399;28;20496;-73
2023/11/26 09:08:28;;;;;;;3.78;1.25;;;;;;;;;;5043066;28;20045;-73
2023/11/26 09:10:59;;;;;;;5.95;1.00;;;;;;;;;;5043564;28;20060;-73
2023/11/26 09:13:29;;;;;;;2.35;1.25;;;;;;;;;;5045321;28;20075;-73
2023/11/26 09:16:00;;;;;;;5.80;0.90;;;;;;;;;;5043968;28;20049;-73
2023/11/26 09:18:32;;;;;;;6.03;0.98;;;;;;;;;;5044958;28;20053;-73
2023/11/26 09:21:07;;;;;;;6.00;0.95;;;;;;;;;;5044741;28;20045;-72
2023/11/26 09:24:10;;;;;;;3.95;0.90;;;;;;;;;;5044687;28;20510;-73
2023/11/26 09:26:40;;;;;;;8.05;1.00;;;;;;;;;;5045041;28;20515;-72
2023/11/26 09:29:10;;;;;;;5.90;1.15;;;;;;;;;;5045342;28;20047;-74
2023/11/26 09:31:46;;;;;;;3.80;1.10;;;;;;;;;;5044014;28;20394;-75
2023/11/26 09:34:16;;;;;;;6.05;1.00;;;;;;;;;;5044452;28;20051;-73
2023/11/26 09:36:47;;;;;;;11.82;1.92;;;;;;;;;;5044624;28;20040;-74
2023/11/26 09:39:17;;;;;;;4.55;1.02;;;;;;;;;;5044337;28;20504;-73
2023/11/26 09:41:48;;;;;;;1.98;0.90;;;;;;;;;;5044619;28;20032;-74
2023/11/26 09:44:18;;;;;;;6.03;1.17;;;;;;;;;;5044541;28;20790;-74
2023/11/26 09:46:50;;;;;;;7.32;1.05;;;;;;;;;;5044585;28;20056;-73
2023/11/26 09:49:21;;;;;;;9.25;1.40;;;;;;;;;;5044351;28;20060;-73
2023/11/26 09:51:59;;;;;;;4.50;1.05;;;;;;;;;;5044720;28;20076;-73
2023/11/26 09:54:31;;;;;;;3.28;1.00;;;;;;;;;;5043755;28;20049;-77
2023/11/26 09:57:03;;;;;;;3.65;1.27;;;;;;;;;;5044128;28;20049;-72
2023/11/26 09:59:34;;;;;;;6.50;1.00;;;;;;;;;;5044863;28;20041;-72
2023/11/26 10:02:09;;;;;;;3.63;1.00;;;;;;;;;;5044841;28;20041;-72
2023/11/26 10:04:51;;;;;;;7.72;1.30;;;;;;;;;;5044352;28;20380;-73
2023/11/26 10:07:38;;;;;;;10.93;0.90;;;;;;;;;;5044706;28;20048;-72
2023/11/26 10:10:09;;;;;;;3.47;1.20;;;;;;;;;;5044221;28;20423;-75
2023/11/26 10:12:53;;;;;;;5.38;1.00;;;;;;;;;;5043990;28;20049;-73
2023/11/26 10:15:28;;;;;;;5.82;1.00;;;;;;;;;;5043208;28;20053;-72
2023/11/26 10:17:59;;;;;;;;;;;;;;;;;;5044571;28;20107;-72
2023/11/26 10:20:30;;;;;;;6.35;1.10;;;;;;;;;;5042439;28;19924;-73
2023/11/26 10:23:02;;;;;;;5.05;1.60;;;;;;;;;;5043453;28;20641;-74
2023/11/26 10:25:33;;;;;;;3.20;1.33;;;;;;;;;;5043898;28;20049;-74
2023/11/26 10:28:15;;;;;;;9.38;1.75;;;;;;;;;;5044079;28;20577;-72
2023/11/26 10:30:46;;;;;;;8.80;1.40;;;;;;;;;;5043975;28;20060;-76
2023/11/26 10:33:18;;;;;;;7.30;1.38;;;;;;;;;;5042030;28;20049;-74
2023/11/26 10:35:51;;;;;;;5.88;1.58;;;;;;;;;;5043727;28;20430;-72
2023/11/26 10:38:33;;;;;;;4.03;1.67;;;;;;;;;;5027008;28;20053;-73
2023/11/26 10:41:05;;;;;;;8.90;1.90;;;;;;;;;;5043714;28;20049;-73
2023/11/26 10:43:37;;;;;;;4.93;1.75;;;;;;;;;;5043429;28;20045;-74
2023/11/26 10:46:22;;;;;;;8.35;2.00;;;;;;;;;;5043322;28;20068;-73
2023/11/26 10:49:02;;;;;;;8.57;2.50;;;;;;;;;;5042044;28;20386;-75
2023/11/26 10:51:35;;;;;;;7.10;2.42;;;;;;;;;;5041895;28;20052;-73
2023/11/26 10:54:14;;;;;;;15.45;2.97;;;;;;;;;;5043728;28;20060;-73
2023/11/26 10:56:49;;;;;;;8.50;2.50;;;;;;;;;;5043512;28;20059;-72
2023/11/26 10:59:21;;;;;;;4.80;1.98;;;;;;;;;;5043354;28;20049;-73
2023/11/26 11:01:52;;;;;;;3.83;2.00;;;;;;;;;;5043346;28;20056;-72
2023/11/26 11:04:24;;;;;;;7.35;3.92;;;;;;;;;;5043268;28;20056;-73
2023/11/26 11:06:55;;;;;;;6.45;2.30;;;;;;;;;;5043102;28;20971;-72
2023/11/26 11:10:25;;;;;;;5.38;2.50;;;;;;;;;;5042697;28;20041;-73
2023/11/26 11:13:07;;;;;;;8.98;2.55;;;;;;;;;;5043526;28;20383;-72
2023/11/26 11:15:40;;;;;;;5.85;2.53;;;;;;;;;;5042679;28;20052;-75
2023/11/26 11:18:44;;;;;;;5.82;1.70;;;;;;;;;;5043004;28;20059;-73
2023/11/26 11:21:16;;;;;;;5.85;2.30;;;;;;;;;;5040461;28;20044;-73
2023/11/26 11:23:52;;;;;;;3.25;1.73;;;;;;;;;;5043601;28;20056;-74
2023/11/26 11:26:23;;;;;;;;;;;;;;;;;;5043544;28;20045;-73
2023/11/26 11:29:00;;;;;;;4.75;2.15;;;;;;;;;;5042990;28;19932;-76
2023/11/26 11:31:48;;;;;;;6.38;2.45;;;;;;;;;;5043081;28;20045;-74
2023/11/26 11:34:20;;;;;;;5.45;2.15;;;;;;;;;;5042457;28;20057;-72
2023/11/26 11:36:51;;;;;;;6.50;2.00;;;;;;;;;;5041923;28;20044;-72
2023/11/26 11:39:42;;;;;;;6.65;2.10;;;;;;;;;;5042297;28;20044;-73
2023/11/26 11:42:21;;;;;;;6.55;2.13;;;;;;;;;;5043011;28;20053;-73
2023/11/26 11:44:51;;;;;;;8.77;2.53;;;;;;;;;;5042775;28;20496;-73
2023/11/26 11:47:41;;;;;;;6.10;2.30;;;;;;;;;;5042778;28;20056;-73
2023/11/26 11:50:14;;;;;;;5.82;2.33;;;;;;;;;;5041269;28;20053;-73
2023/11/26 11:52:55;;;;;;;6.82;2.42;;;;;;;;;;5042926;28;20055;-73
2023/11/26 11:55:39;;;;;;;6.43;2.42;;;;;;;;;;5041864;28;20052;-73
2023/11/26 11:58:13;;;;;;;5.20;2.90;;;;;;;;;;5042540;28;20044;-73
2023/11/26 12:00:46;;;;;;;6.45;2.40;;;;;;;;;;5042967;28;20045;-72
2023/11/26 12:03:17;;;;;;;5.88;2.95;;;;;;;;;;5042648;28;20507;-73
2023/11/26 12:05:50;;;;;;;6.97;2.60;;;;;;;;;;5041732;28;20037;-74
2023/11/26 12:08:22;;;;;;;6.05;2.35;;;;;;;;;;5041938;28;20059;-74
2023/11/26 12:11:08;;;;;;;8.32;3.65;;;;;;;;;;5042025;28;20052;-73
2023/11/26 12:13:45;;;;;;;7.43;2.45;;;;;;;;;;5042183;28;20053;-74
2023/11/26 12:16:16;;;;;;;5.60;2.30;;;;;;;;;;5041528;28;20055;-73
2023/11/26 12:18:46;;;;;;;4.60;2.13;;;;;;;;;;5041982;28;20057;-72
2023/11/26 12:21:17;;;;;;;19.33;3.00;;;;;;;;;;5040414;28;20045;-74
2023/11/26 12:23:48;;;;;;;8.90;2.70;;;;;;;;;;5041957;28;20052;-72
2023/11/26 12:26:18;;;;;;;7.90;2.72;;;;;;;;;;5042050;28;20047;-73
2023/11/26 12:28:49;;;;;;;9.80;2.67;;;;;;;;;;5041183;28;20064;-74
2023/11/26 12:31:19;;;;;;;7.30;2.53;;;;;;;;;;5042444;28;20045;-73
2023/11/26 12:33:54;;;;;;;4.38;2.47;;;;;;;;;;5041914;28;20052;-73
2023/11/26 12:36:25;;;;;;;3.63;2.00;;;;;;;;;;5042101;28;20049;-73
2023/11/26 12:38:56;;;;;;;6.72;2.78;;;;;;;;;;5041572;28;20419;-73
2023/11/26 12:41:27;;;;;;;4.65;2.15;;;;;;;;;;5041909;28;20049;-73
2023/11/26 12:44:01;;;;;;;3.55;2.30;;;;;;;;;;5045667;28;20048;-73
2023/11/26 12:46:33;;;;;;;4.22;1.75;;;;;;;;;;5045896;28;20049;-73
2023/11/26 12:49:14;;;;;;;5.43;2.25;;;;;;;;;;5045526;28;20060;-73
2023/11/26 12:51:46;;;;;;;3.83;2.30;;;;;;;;;;5045538;28;21144;-73
2023/11/26 12:54:17;;;;;;;3.30;1.90;;;;;;;;;;5045592;28;20049;-74
2023/11/26 12:56:47;;;;;;;4.65;2.28;;;;;;;;;;5045261;28;20033;-73
2023/11/26 12:59:18;;;;;;;5.90;3.55;;;;;;;;;;5045386;28;20056;-73
2023/11/26 13:01:52;;;;;;;9.07;2.75;;;;;;;;;;5045605;28;20041;-73
2023/11/26 13:04:31;;;;;;;4.60;1.83;;;;;;;;;;5044983;28;20049;-74
2023/11/26 13:07:04;;;;;;;5.80;3.63;;;;;;;;;;5046011;28;20041;-74
2023/11/26 13:10:34;;;;;;;5.65;1.92;;;;;;;;;;5044833;28;20045;-77
2023/11/26 13:13:05;;;;;;;3.80;1.67;;;;;;;;;;5045660;28;20120;-74
2023/11/26 13:15:35;;;;;;;6.97;2.20;;;;;;;;;;5045156;28;20041;-74
2023/11/26 13:18:06;;;;;;;3.63;2.00;;;;;;;;;;5045800;28;20771;-75
2023/11/26 13:20:36;;;;;;;5.15;2.13;;;;;;;;;;5046116;28;20431;-73
2023/11/26 13:23:07;;;;;;;5.35;1.80;;;;;;;;;;5045140;28;20056;-75
2023/11/26 13:25:37;;;;;;;3.88;1.63;;;;;;;;;;5045352;28;20057;-75
2023/11/26 13:28:08;;;;;;;2.67;1.90;;;;;;;;;;5045427;28;20392;-74
2023/11/26 13:30:41;;;;;;;4.65;1.70;;;;;;;;;;5044794;28;20048;-76
2023/11/26 13:33:14;;;;;;;7.18;1.90;;;;;;;;;;5043690;28;20067;-74
2023/11/26 13:35:45;;;;;;;3.95;1.80;;;;;;;;;;5044654;28;20087;-75
2023/11/26 13:38:16;;;;;;;7.93;1.83;;;;;;;;;;5044996;28;20516;-75
2023/11/26 13:40:50;;;;;;;5.82;2.30;;;;;;;;;;5045509;28;20060;-77
2023/11/26 13:43:22;;;;;;;2.88;1.60;;;;;;;;;;5044870;28;20538;-74
2023/11/26 13:45:53;;;;;;;4.43;1.80;;;;;;;;;;5044572;28;20061;-75
2023/11/26 13:48:24;;;;;;;3.90;1.90;;;;;;;;;;5044697;28;20052;-75
2023/11/26 13:50:55;;;;;;;3.78;1.77;;;;;;;;;;5044856;28;20384;-75
2023/11/26 13:53:27;;;;;;;5.80;1.80;;;;;;;;;;5044447;28;20052;-74
2023/11/26 13:55:58;;;;;;;7.25;1.83;;;;;;;;;;5043767;28;20045;-75
2023/11/26 13:58:31;;;;;;;3.88;1.65;;;;;;;;;;5045062;28;20044;-75
2023/11/26 14:01:01;;;;;;;3.28;1.48;;;;;;;;;;5045006;28;20041;-75
2023/11/26 14:03:32;;;;;;;5.65;1.73;;;;;;;;;;5044337;28;20056;-74
2023/11/26 14:06:04;;;;;;;5.55;2.10;;;;;;;;;;5043624;28;20104;-75
2023/11/26 14:08:36;;;;;;;5.78;1.52;;;;;;;;;;5043986;28;20048;-73
2023/11/26 14:11:07;;;;;;;3.42;1.70;;;;;;;;;;5044400;28;20052;-73
2023/11/26 14:13:37;;;;;;;4.18;1.73;;;;;;;;;;5044654;28;20056;-75
2023/11/26 14:16:08;;;;;;;4.63;2.00;;;;;;;;;;5042419;28;20427;-75
2023/11/26 14:18:38;;;;;;;7.50;2.38;;;;;;;;;;5033181;28;20053;-73
2023/11/26 14:21:08;;;;;;;6.57;1.35;;;;;;;;;;5030777;28;20556;-79
2023/11/26 14:23:39;;;;;;;26.02;3.22;;;;;;;;;;5034682;28;20053;-73
2023/11/26 14:26:10;;;;;;;2.17;1.40;;;;;;;;;;5040099;28;20045;-74
2023/11/26 14:28:40;;;;;;;6.05;1.75;;;;;;;;;;5024128;28;20042;-75
2023/11/26 14:31:11;;;;;;;6.20;1.70;;;;;;;;;;5024390;28;20049;-75
2023/11/26 14:33:42;;;;;;;5.63;1.85;;;;;;;;;;5031774;28;20052;-74
2023/11/26 14:36:16;;;;;;;5.90;1.70;;;;;;;;;;5043628;28;20049;-75
2023/11/26 14:38:47;;;;;;;3.72;1.50;;;;;;;;;;5043656;28;20522;-75
2023/11/26 14:41:18;;;;;;;4.85;1.75;;;;;;;;;;5044278;28;20037;-77
2023/11/26 14:43:48;;;;;;;6.45;1.45;;;;;;;;;;5043382;28;20051;-74
2023/11/26 14:46:18;;;;;;;4.25;1.40;;;;;;;;;;5043282;28;20060;-73
2023/11/26 14:48:50;;;;;;;3.85;1.88;;;;;;;;;;5034636;28;20416;-75
2023/11/26 14:51:22;;;;;;;5.40;2.30;;;;;;;;;;5022804;28;20045;-73
2023/11/26 14:53:52;;;;;;;6.50;2.20;;;;;;;;;;5028412;28;20420;-74
2023/11/26 14:56:22;;;;;;;4.22;1.63;;;;;;;;;;5023509;28;20527;-75
2023/11/26 14:58:52;;;;;;;5.22;1.60;;;;;;;;;;5023322;28;20052;-74
2023/11/26 15:01:23;;;;;;;2.92;1.58;;;;;;;;;;5023226;28;20588;-75
2023/11/26 15:03:53;;;;;;;4.13;1.67;;;;;;;;;;5023366;28;20053;-75
2023/11/26 15:06:24;;;;;;;3.25;1.40;;;;;;;;;;5022691;28;20049;-74
2023/11/26 15:08:54;;;;;;;4.38;1.65;;;;;;;;;;5023169;28;20416;-74
2023/11/26 15:11:27;;;;;;;5.13;1.70;;;;;;;;;;5023498;28;20053;-76
2023/11/26 15:13:58;;;;;;;4.55;1.63;;;;;;;;;;5023339;28;20049;-74
2023/11/26 15:16:28;;;;;;;4.57;1.80;;;;;;;;;;5023065;28;20527;-75
2023/11/26 15:18:58;;;;;;;4.60;1.80;;;;;;;;;;5029843;28;20432;-74
2023/11/26 15:21:29;;;;;;;5.18;1.60;;;;;;;;;;5036672;28;20053;-76
2023/11/26 15:23:59;;;;;;;2.95;1.33;;;;;;;;;;5042380;28;20049;-74
2023/11/26 15:26:33;;;;;;;4.88;1.73;;;;;;;;;;5041380;28;20404;-74
2023/11/26 15:29:03;;;;;;;4.57;1.50;;;;;;;;;;5042578;28;20049;-74
2023/11/26 15:31:34;;;;;;;2.00;1.40;;;;;;;;;;5042415;28;20052;-75
2023/11/26 15:34:06;;;;;;;4.63;1.73;;;;;;;;;;5042785;28;20064;-74